Thorco Attraction — V2BS1 — position and weather

sailwx.info

Track history (hours):
 
Tides and Currents Weather Stations Pressure Air Temp Water Temp Dewpoint Dewpoint Depression Visibility Wind Speed Wind Dir Waves Ship Positions

Thorco Attraction

Last reported at 2014-Oct-30 05:12 UTC. Time now 2014-Nov-01 09:08 UTC.
Position N 38°38' W 009°48'.

Length 132 m; draft 8.5 m.

Type: Cargo ship. MMSI: 304908000.

Date/timePositionNaut miles runAvg speedWind from/ knotsBaromVisibWave heightAir tempDewpointWater temp
2014-Oct-30 05:12N 38°38' W 009°48'710.0
2014-Oct-30 04:33N 38°35' W 009°40'1010.4
2014-Oct-30 03:33N 38°29' W 009°29'1110.7
2014-Oct-30 02:33N 38°25' W 009°17'1010.5
2014-Oct-30 01:33N 38°25' W 009°03'10 9.6
2014-Oct-30 00:33N 38°31' W 008°53'2 1.8
2014-Oct-29 23:34N 38°30' W 008°51'0 0.0
2014-Oct-29 22:33N 38°30' W 008°51'0 0.0
2014-Oct-29 21:32N 38°30' W 008°51'0 0.0
2014-Oct-29 20:15N 38°30' W 008°51'0 0.0
2014-Oct-29 19:33N 38°30' W 008°51'0 0.0
2014-Oct-29 18:25N 38°30' W 008°51'0 0.0
2014-Oct-29 05:32N 38°30' W 008°51'0 0.0
2014-Oct-29 04:32N 38°30' W 008°51'0 0.0
2014-Oct-29 02:30N 38°30' W 008°51'0 0.0
2014-Oct-29 01:33N 38°30' W 008°51'0 0.0
2014-Oct-29 00:32N 38°30' W 008°51'0 0.0
2014-Oct-28 23:26N 38°30' W 008°51'0 0.0
2014-Oct-28 22:32N 38°30' W 008°51'0 0.0
2014-Oct-28 20:30N 38°30' W 008°51'0 0.0
2014-Oct-28 11:33N 38°30' W 008°51'0 0.0
2014-Oct-28 10:30N 38°30' W 008°51'0 0.0
2014-Oct-28 08:33N 38°30' W 008°51'0 0.0
2014-Oct-28 06:25N 38°30' W 008°51'0 0.0
2014-Oct-28 05:31N 38°30' W 008°51'0 0.0
2014-Oct-28 02:28N 38°30' W 008°51'0 0.0
2014-Oct-28 00:33N 38°30' W 008°51'0 0.0
2014-Oct-27 23:14N 38°30' W 008°51'0 0.0
2014-Oct-27 22:32N 38°30' W 008°51'0 0.0
2014-Oct-27 21:32N 38°30' W 008°51'0 0.0
2014-Oct-27 20:33N 38°30' W 008°51'5 4.5
2014-Oct-27 19:33N 38°29' W 008°56'6 5.8
2014-Oct-27 18:33N 38°24' W 009°01'1211.8
2014-Oct-27 17:33N 38°13' W 009°06'1211.8
2014-Oct-27 16:34N 38°02' W 009°12'1211.8
2014-Oct-27 15:33N 37°52' W 009°18'1211.9
2014-Oct-27 14:33N 37°40' W 009°24'1211.9
2014-Oct-27 13:33N 37°29' W 009°29'1311.9
2014-Oct-27 12:28N 37°17' W 009°36'1111.8
2014-Oct-27 11:29N 37°07' W 009°42'1111.6
2014-Oct-27 10:33N 36°57' W 009°47'1211.5
2014-Oct-27 09:32N 36°47' W 009°54'2711.5
2014-Oct-27 07:14N 36°23' W 010°08'811.6
2014-Oct-27 06:34N 36°16' W 010°12'1211.7
2014-Oct-27 05:33N 36°05' W 010°19'1211.7
2014-Oct-27 04:33N 35°54' W 010°25'1211.8
2014-Oct-27 03:33N 35°44' W 010°31'1211.8
2014-Oct-27 02:33N 35°33' W 010°38'  
Track history (hours):
 
Tides and Currents Weather Stations Pressure Air Temp Water Temp Dewpoint Dewpoint Depression Visibility Wind Speed Wind Dir Waves Ship Positions

Thorco Attraction

Last reported at 2014-Oct-30 05:12 UTC. Time now 2014-Nov-01 09:08 UTC.
Position N 38°38' W 009°48'.

Length 132 m; draft 8.5 m.

Type: Cargo ship. MMSI: 304908000.

Date/timePositionNaut miles runAvg speedWind from/ knotsBaromVisibWave heightAir tempDewpointWater temp
2014-Oct-30 05:12N 38°38' W 009°48'710.0
2014-Oct-30 04:33N 38°35' W 009°40'1010.4
2014-Oct-30 03:33N 38°29' W 009°29'1110.7
2014-Oct-30 02:33N 38°25' W 009°17'1010.5
2014-Oct-30 01:33N 38°25' W 009°03'10 9.6
2014-Oct-30 00:33N 38°31' W 008°53'2 1.8
2014-Oct-29 23:34N 38°30' W 008°51'0 0.0
2014-Oct-29 22:33N 38°30' W 008°51'0 0.0
2014-Oct-29 21:32N 38°30' W 008°51'0 0.0
2014-Oct-29 20:15N 38°30' W 008°51'0 0.0
2014-Oct-29 19:33N 38°30' W 008°51'0 0.0
2014-Oct-29 18:25N 38°30' W 008°51'0 0.0
2014-Oct-29 05:32N 38°30' W 008°51'0 0.0
2014-Oct-29 04:32N 38°30' W 008°51'0 0.0
2014-Oct-29 02:30N 38°30' W 008°51'0 0.0
2014-Oct-29 01:33N 38°30' W 008°51'0 0.0
2014-Oct-29 00:32N 38°30' W 008°51'0 0.0
2014-Oct-28 23:26N 38°30' W 008°51'0 0.0
2014-Oct-28 22:32N 38°30' W 008°51'0 0.0
2014-Oct-28 20:30N 38°30' W 008°51'0 0.0
2014-Oct-28 11:33N 38°30' W 008°51'0 0.0
2014-Oct-28 10:30N 38°30' W 008°51'0 0.0
2014-Oct-28 08:33N 38°30' W 008°51'0 0.0
2014-Oct-28 06:25N 38°30' W 008°51'0 0.0
2014-Oct-28 05:31N 38°30' W 008°51'0 0.0
2014-Oct-28 02:28N 38°30' W 008°51'0 0.0
2014-Oct-28 00:33N 38°30' W 008°51'0 0.0
2014-Oct-27 23:14N 38°30' W 008°51'0 0.0
2014-Oct-27 22:32N 38°30' W 008°51'0 0.0
2014-Oct-27 21:32N 38°30' W 008°51'0 0.0
2014-Oct-27 20:33N 38°30' W 008°51'5 4.5
2014-Oct-27 19:33N 38°29' W 008°56'6 5.8
2014-Oct-27 18:33N 38°24' W 009°01'1211.8
2014-Oct-27 17:33N 38°13' W 009°06'1211.8
2014-Oct-27 16:34N 38°02' W 009°12'1211.8
2014-Oct-27 15:33N 37°52' W 009°18'1211.9
2014-Oct-27 14:33N 37°40' W 009°24'1211.9
2014-Oct-27 13:33N 37°29' W 009°29'1311.9
2014-Oct-27 12:28N 37°17' W 009°36'1111.8
2014-Oct-27 11:29N 37°07' W 009°42'1111.6
2014-Oct-27 10:33N 36°57' W 009°47'1211.5
2014-Oct-27 09:32N 36°47' W 009°54'2711.5
2014-Oct-27 07:14N 36°23' W 010°08'811.6
2014-Oct-27 06:34N 36°16' W 010°12'1211.7
2014-Oct-27 05:33N 36°05' W 010°19'1211.7
2014-Oct-27 04:33N 35°54' W 010°25'1211.8
2014-Oct-27 03:33N 35°44' W 010°31'1211.8
2014-Oct-27 02:33N 35°33' W 010°38'  

Dump ship's entire track history